createdAt,value
2018-09-05T00:00:20.050Z,15.54
2018-09-05T00:01:20.042Z,15.54
2018-09-05T00:02:19.766Z,15.35
2018-09-05T00:03:20.026Z,15.54
2018-09-05T00:04:20.011Z,15.64
2018-09-05T00:05:19.726Z,15.54
2018-09-05T00:06:19.977Z,15.16
2018-09-05T00:07:19.982Z,15.44
2018-09-05T00:08:19.956Z,15.25
2018-09-05T00:09:19.944Z,15.06
2018-09-05T00:10:19.948Z,15.16
2018-09-05T00:11:19.925Z,14.87
2018-09-05T00:12:19.909Z,14.77
2018-09-05T00:13:19.637Z,14.87
2018-09-05T00:14:19.997Z,14.67
2018-09-05T00:15:19.616Z,14.97
2018-09-05T00:16:19.864Z,14.77
2018-09-05T00:17:19.850Z,15.06
2018-09-05T00:18:19.578Z,15.54
2018-09-05T00:19:19.565Z,15.54
2018-09-05T00:20:19.822Z,14.77
2018-09-05T00:21:19.805Z,14.87
2018-09-05T00:22:19.794Z,13.91
2018-09-05T00:23:19.838Z,13.9
2018-09-05T00:24:19.524Z,13.91
2018-09-05T00:25:19.500Z,14.58
2018-09-05T00:26:19.487Z,14.77
2018-09-05T00:27:19.472Z,15.25
2018-09-05T00:28:19.464Z,15.34
2018-09-05T00:29:19.446Z,15.34
2018-09-05T00:30:19.701Z,15.63
2018-09-05T00:31:19.428Z,15.92
2018-09-05T00:32:19.677Z,15.92
2018-09-05T00:33:19.720Z,16.11
2018-09-05T00:34:19.390Z,16.11
2018-09-05T00:35:19.642Z,16.11
2018-09-05T00:36:19.637Z,16.3
2018-09-05T00:37:19.356Z,15.53
2018-09-05T00:38:19.345Z,15.63
2018-09-05T00:39:19.336Z,15.44
2018-09-05T00:40:19.586Z,15.15
2018-09-05T00:41:19.574Z,15.25
2018-09-05T00:42:19.575Z,14.67
2018-09-05T00:43:19.549Z,15.05
2018-09-05T00:44:19.541Z,14.48
2018-09-05T00:45:19.523Z,14.58
2018-09-05T00:46:19.254Z,14.76
2018-09-05T00:47:19.498Z,14.48
2018-09-05T00:48:19.489Z,13.9
2018-09-05T00:49:19.480Z,13.9
2018-09-05T00:50:19.466Z,14.09
2018-09-05T00:51:19.189Z,13.9
2018-09-05T00:52:19.438Z,13.71
2018-09-05T00:53:19.261Z,13.61
2018-09-05T00:54:19.151Z,13.42
2018-09-05T00:55:19.407Z,13.81
2018-09-05T00:56:19.398Z,13.52
2018-09-05T00:57:19.320Z,13.32
2018-09-05T00:58:19.364Z,13.04
2018-09-05T00:59:19.095Z,13.13
2018-09-05T01:00:19.348Z,12.75
2018-09-05T01:01:19.339Z,12.94
2018-09-05T01:02:19.329Z,13.04
2018-09-05T01:03:19.309Z,12.94
2018-09-05T01:04:19.031Z,13.04
2018-09-05T01:05:19.286Z,12.37
2018-09-05T01:06:19.014Z,12.65
2018-09-05T01:07:19.258Z,12.75
2018-09-05T01:08:18.988Z,12.65
2018-09-05T01:09:19.234Z,12.65
2018-09-05T01:10:18.960Z,12.46
2018-09-05T01:11:19.217Z,12.46
2018-09-05T01:12:18.936Z,12.56
2018-09-05T01:13:19.194Z,12.75
2018-09-05T01:14:19.178Z,12.74
2018-09-05T01:15:18.903Z,13.04
2018-09-05T01:16:19.156Z,13.23
2018-09-05T01:17:19.139Z,12.94
2018-09-05T01:18:18.864Z,13.6
2018-09-05T01:19:19.118Z,13.7
2018-09-05T01:20:19.105Z,13.7
2018-09-05T01:21:18.830Z,13.6
2018-09-05T01:22:19.083Z,13.7
2018-09-05T01:23:19.078Z,14.18
2018-09-05T01:24:19.149Z,13.99
2018-09-05T01:25:19.251Z,14.47
2018-09-05T01:26:19.034Z,14.47
2018-09-05T01:27:19.026Z,14.56
2018-09-05T01:28:19.016Z,14.66
2018-09-05T01:29:18.994Z,14.37
2018-09-05T01:30:18.986Z,14.66
2018-09-05T01:31:18.713Z,14.66
2018-09-05T01:32:18.696Z,14.76
2018-09-05T01:33:18.684Z,15.14
2018-09-05T01:34:18.936Z,15.14
2018-09-05T01:35:18.972Z,15.14
2018-09-05T01:36:18.916Z,15.14
2018-09-05T01:37:18.638Z,14.85
2018-09-05T01:38:18.886Z,14.85
2018-09-05T01:39:18.873Z,15.14
2018-09-05T01:40:18.876Z,14.56
2018-09-05T01:41:18.850Z,14.37
2018-09-05T01:42:18.835Z,14.56
2018-09-05T01:43:18.837Z,14.09
2018-09-05T01:44:18.551Z,14.28
2018-09-05T01:45:18.801Z,13.89
2018-09-05T01:46:18.789Z,13.89
2018-09-05T01:47:18.516Z,13.51
2018-09-05T01:48:18.769Z,13.8
2018-09-05T01:49:18.756Z,13.42
2018-09-05T01:50:18.742Z,13.42
2018-09-05T01:51:18.744Z,13.51
2018-09-05T01:52:18.715Z,13.13
2018-09-05T01:53:18.706Z,13.03
2018-09-05T01:54:18.692Z,13.13
2018-09-05T01:55:18.684Z,13.03
2018-09-05T01:56:18.669Z,13.23
2018-09-05T01:57:18.391Z,12.93
2018-09-05T01:58:18.644Z,12.74
2018-09-05T01:59:18.627Z,12.84
2018-09-05T02:00:18.354Z,12.65
2018-09-05T02:01:18.342Z,12.84
2018-09-05T02:02:18.336Z,12.93
2018-09-05T02:03:18.319Z,12.74
2018-09-05T02:04:18.570Z,12.55
2018-09-05T02:05:18.556Z,12.55
2018-09-05T02:06:18.550Z,12.74
2018-09-05T02:07:18.268Z,12.74
2018-09-05T02:08:18.601Z,12.46
2018-09-05T02:09:18.506Z,12.55
2018-09-05T02:10:18.232Z,12.65
2018-09-05T02:11:18.219Z,12.36
2018-09-05T02:12:18.526Z,12.74
2018-09-05T02:13:18.461Z,12.74
2018-09-05T02:14:18.443Z,12.65
2018-09-05T02:15:18.173Z,12.74
2018-09-05T02:16:18.422Z,12.74
2018-09-05T02:17:18.145Z,12.84
2018-09-05T02:18:18.135Z,13.03
2018-09-05T02:19:18.120Z,13.23
2018-09-05T02:20:18.372Z,13.79
2018-09-05T02:21:18.364Z,13.6
2018-09-05T02:22:18.347Z,13.89
2018-09-05T02:23:18.073Z,14.08
2018-09-05T02:24:18.330Z,14.08
2018-09-05T02:25:18.045Z,13.89
2018-09-05T02:26:18.033Z,13.89
2018-09-05T02:27:18.289Z,13.79
2018-09-05T02:28:18.317Z,13.79
2018-09-05T02:29:18.262Z,13.51
2018-09-05T02:30:17.991Z,13.7
2018-09-05T02:31:18.241Z,13.6
2018-09-05T02:32:17.960Z,13.31
2018-09-05T02:33:18.213Z,13.7
2018-09-05T02:34:17.934Z,13.41
2018-09-05T02:35:18.203Z,13.6
2018-09-05T02:36:17.908Z,13.31
2018-09-05T02:37:18.166Z,13.51
2018-09-05T02:38:18.146Z,13.12
2018-09-05T02:39:17.878Z,13.12
2018-09-05T02:40:18.255Z,12.84
2018-09-05T02:41:17.851Z,13.12
2018-09-05T02:42:17.836Z,13.31
2018-09-05T02:43:18.088Z,13.02
2018-09-05T02:44:17.812Z,13.21
2018-09-05T02:45:18.063Z,13.21
2018-09-05T02:46:17.788Z,13.41
2018-09-05T02:47:18.035Z,13.21
2018-09-05T02:48:18.024Z,13.12
2018-09-05T02:49:18.016Z,13.02
2018-09-05T02:50:17.997Z,12.84
2018-09-05T02:51:17.988Z,13.31
2018-09-05T02:52:17.718Z,13.02
2018-09-05T02:53:17.701Z,13.7
2018-09-05T02:54:17.950Z,13.7
2018-09-05T02:55:17.676Z,13.6
2018-09-05T02:56:17.926Z,13.89
2018-09-05T02:57:17.651Z,13.7
2018-09-05T02:58:17.912Z,13.89
2018-09-05T02:59:17.628Z,14.08
2018-09-05T03:00:17.872Z,13.89
2018-09-05T03:01:17.863Z,14.46
2018-09-05T03:02:17.849Z,14.65
2018-09-05T03:03:17.840Z,14.46
2018-09-05T03:04:17.827Z,14.74
2018-09-05T03:05:17.824Z,14.84
2018-09-05T03:06:17.815Z,15.32
2018-09-05T03:07:17.523Z,15.32
2018-09-05T03:08:17.780Z,15.7
2018-09-05T03:09:17.517Z,15.51
2018-09-05T03:10:17.752Z,16.08
2018-09-05T03:11:17.736Z,16.08
2018-09-05T03:12:17.462Z,16.27
2018-09-05T03:13:17.711Z,15.99
2018-09-05T03:14:17.433Z,16.27
2018-09-05T03:15:17.424Z,16.18
2018-09-05T03:16:17.411Z,16.18
2018-09-05T03:17:17.395Z,16.18
2018-09-05T03:18:17.655Z,16.08
2018-09-05T03:19:17.636Z,15.99
2018-09-05T03:20:17.626Z,15.99
2018-09-05T03:21:17.344Z,15.8
2018-09-05T03:22:17.596Z,15.32
2018-09-05T03:23:17.592Z,15.99
2018-09-05T03:24:17.572Z,15.99
2018-09-05T03:25:17.558Z,15.32
2018-09-05T03:26:17.283Z,15.99
2018-09-05T03:27:17.539Z,15.61
2018-09-05T03:28:17.523Z,15.32
2018-09-05T03:29:17.242Z,15.41
2018-09-05T03:30:17.496Z,15.41
2018-09-05T03:31:17.223Z,15.03
2018-09-05T03:32:17.798Z,15.12
2018-09-05T03:33:17.458Z,14.94
2018-09-05T03:34:17.460Z,14.65
2018-09-05T03:35:17.432Z,14.74
2018-09-05T03:36:17.418Z,14.84
2018-09-05T03:37:17.404Z,14.84
2018-09-05T03:38:17.132Z,14.94
2018-09-05T03:39:17.118Z,14.65
2018-09-05T03:40:17.103Z,14.74
2018-09-05T03:41:17.361Z,15.32
2018-09-05T03:42:17.081Z,14.74
2018-09-05T03:43:17.070Z,14.65
2018-09-05T03:44:17.325Z,14.84
2018-09-05T03:45:17.301Z,14.84
2018-09-05T03:46:17.028Z,14.74
2018-09-05T03:47:17.279Z,15.12
2018-09-05T03:48:17.005Z,14.84
2018-09-05T03:49:16.996Z,15.22
2018-09-05T03:50:16.974Z,15.22
2018-09-05T03:51:16.964Z,14.74
2018-09-05T03:52:17.224Z,14.84
2018-09-05T03:53:17.213Z,14.73
2018-09-05T03:54:16.937Z,14.94
2018-09-05T03:55:16.917Z,14.84
2018-09-05T03:56:16.902Z,14.36
2018-09-05T03:57:17.151Z,14.55
2018-09-05T03:58:17.139Z,14.55
2018-09-05T03:59:17.131Z,14.45
2018-09-05T04:00:17.118Z,14.26
2018-09-05T04:01:16.835Z,14.93
2018-09-05T04:02:16.821Z,14.74
2018-09-05T04:03:17.076Z,14.64
2018-09-05T04:04:17.066Z,14.54
2018-09-05T04:05:17.054Z,14.93
2018-09-05T04:06:16.770Z,14.83
2018-09-05T04:07:16.756Z,14.45
2018-09-05T04:08:17.007Z,14.26
2018-09-05T04:09:17.033Z,13.97
2018-09-05T04:10:16.718Z,14.06
2018-09-05T04:11:16.703Z,13.68
2018-09-05T04:12:17.160Z,13.78
2018-09-05T04:13:16.882Z,13.49
2018-09-05T04:14:16.937Z,13.49
2018-09-05T04:15:16.918Z,13.4
2018-09-05T04:16:16.639Z,13.49
2018-09-05T04:17:16.629Z,13.01
2018-09-05T04:18:16.877Z,13.21
2018-09-05T04:19:16.602Z,12.54
2018-09-05T04:20:16.791Z,12.73
2018-09-05T04:21:16.580Z,12.92
2018-09-05T04:22:16.823Z,12.92
2018-09-05T04:23:16.549Z,12.73
2018-09-05T04:24:16.805Z,12.82
2018-09-05T04:25:16.790Z,12.54
2018-09-05T04:26:16.772Z,12.44
2018-09-05T04:27:16.758Z,12.44
2018-09-05T04:28:16.484Z,12.82
2018-09-05T04:29:16.523Z,12.73
2018-09-05T04:30:16.784Z,12.92
2018-09-05T04:31:16.716Z,12.63
2018-09-05T04:32:16.439Z,12.82
2018-09-05T04:33:16.417Z,12.63
2018-09-05T04:34:16.675Z,12.54
2018-09-05T04:35:16.659Z,12.54
2018-09-05T04:36:16.640Z,12.25
2018-09-05T04:37:16.365Z,12.44
2018-09-05T04:38:16.619Z,12.44
2018-09-05T04:39:16.342Z,12.54
2018-09-05T04:40:16.591Z,11.87
2018-09-05T04:41:16.585Z,12.05
2018-09-05T04:42:16.571Z,12.25
2018-09-05T04:43:16.551Z,12.34
2018-09-05T04:44:16.544Z,12.15
2018-09-05T04:45:16.313Z,12.05
2018-09-05T04:46:16.514Z,11.87
2018-09-05T04:47:16.237Z,12.15
2018-09-05T04:48:16.493Z,12.05
2018-09-05T04:49:16.476Z,12.05
2018-09-05T04:50:16.478Z,12.34
2018-09-05T04:51:16.453Z,12.15
2018-09-05T04:52:16.437Z,12.15
2018-09-05T04:53:16.425Z,12.05
2018-09-05T04:54:16.417Z,11.67
2018-09-05T04:55:16.156Z,11.67
2018-09-05T04:56:16.383Z,11.1
2018-09-05T04:57:16.380Z,11.1
2018-09-05T04:58:16.399Z,11.1
2018-09-05T04:59:16.349Z,11.19
2018-09-05T05:00:16.076Z,11.1
2018-09-05T05:01:16.325Z,11.19
2018-09-05T05:02:16.329Z,11
2018-09-05T05:03:16.300Z,11
2018-09-05T05:04:16.278Z,10.81
2018-09-05T05:05:16.054Z,11
2018-09-05T05:06:16.248Z,10.81
2018-09-05T05:07:16.244Z,11.1
2018-09-05T05:08:16.225Z,11
2018-09-05T05:09:15.953Z,11
2018-09-05T05:10:15.936Z,11.19
2018-09-05T05:11:16.189Z,11.1
2018-09-05T05:12:16.175Z,11.19
2018-09-05T05:13:16.161Z,11
2018-09-05T05:14:16.154Z,11.1
2018-09-05T05:15:16.137Z,10.91
2018-09-05T05:16:16.122Z,11
2018-09-05T05:17:15.846Z,11
2018-09-05T05:18:16.100Z,11
2018-09-05T05:19:16.086Z,11
2018-09-05T05:20:15.810Z,11.1
2018-09-05T05:21:16.057Z,11.19
2018-09-05T05:22:16.048Z,11.19
2018-09-05T05:23:16.029Z,11.19
2018-09-05T05:24:16.022Z,11.29
2018-09-05T05:25:15.743Z,11
2018-09-05T05:26:15.731Z,11
2018-09-05T05:27:15.979Z,10.33
2018-09-05T05:28:15.965Z,10.72
2018-09-05T05:29:15.956Z,10.62
2018-09-05T05:30:15.937Z,10.72
2018-09-05T05:31:15.926Z,10.33
2018-09-05T05:32:15.651Z,9.77
2018-09-05T05:33:15.901Z,10.24
2018-09-05T05:34:15.624Z,10.14
2018-09-05T05:35:15.875Z,10.05
2018-09-05T05:36:15.866Z,10.05
2018-09-05T05:37:15.854Z,10.05
2018-09-05T05:38:15.832Z,10.05
2018-09-05T05:39:15.827Z,9.86
2018-09-05T05:40:16.020Z,9.67
2018-09-05T05:41:15.797Z,9.86
2018-09-05T05:42:15.518Z,9.95
2018-09-05T05:43:15.769Z,9.67
2018-09-05T05:44:15.757Z,9.48
2018-09-05T05:45:15.750Z,9.57
2018-09-05T05:46:15.737Z,9.57
2018-09-05T05:47:15.716Z,9.57
2018-09-05T05:48:15.709Z,9.67
2018-09-05T05:49:15.694Z,9.28
2018-09-05T05:50:15.676Z,9.57
2018-09-05T05:51:15.666Z,9.19
2018-09-05T05:52:15.653Z,9
2018-09-05T05:53:15.643Z,9
2018-09-05T05:54:15.361Z,8.81
2018-09-05T05:55:15.780Z,8.52
2018-09-05T05:56:15.608Z,8.71
2018-09-05T05:57:15.592Z,8.61
2018-09-05T05:58:15.575Z,8.62
2018-09-05T05:59:15.566Z,8.43
2018-09-05T06:00:15.289Z,8.23
2018-09-05T06:01:15.374Z,7.95
2018-09-05T06:02:15.268Z,7.86
2018-09-05T06:03:15.249Z,7.47
2018-09-05T06:04:15.513Z,7.56
2018-09-05T06:05:15.224Z,7.66
2018-09-05T06:06:15.654Z,7.18
2018-09-05T06:07:15.466Z,7.18
2018-09-05T06:08:15.452Z,7.28
2018-09-05T06:09:15.441Z,7.28
2018-09-05T06:10:15.162Z,7.18
2018-09-05T06:11:15.413Z,7.18
2018-09-05T06:12:15.212Z,7.18
2018-09-05T06:13:15.595Z,7.09
2018-09-05T06:14:15.386Z,7.18
2018-09-05T06:15:15.110Z,7.38
2018-09-05T06:16:15.087Z,7.28
2018-09-05T06:17:15.076Z,7.09
2018-09-05T06:18:15.342Z,6.99
2018-09-05T06:19:15.315Z,6.99
2018-09-05T06:20:15.301Z,6.9
2018-09-05T06:21:15.291Z,6.8
2018-09-05T06:22:15.012Z,6.61
2018-09-05T06:23:15.005Z,6.61
2018-09-05T06:24:15.251Z,6.61
2018-09-05T06:25:15.247Z,6.51
2018-09-05T06:26:15.229Z,6.8
2018-09-05T06:27:15.220Z,6.51
2018-09-05T06:28:15.208Z,6.71
2018-09-05T06:29:14.930Z,6.81
2018-09-05T06:30:15.253Z,6.9
2018-09-05T06:31:15.034Z,6.42
2018-09-05T06:32:15.154Z,6.42
2018-09-05T06:33:14.881Z,6.42
2018-09-05T06:34:15.285Z,6.42
2018-09-05T06:35:14.859Z,6.23
2018-09-05T06:36:15.113Z,6.42
2018-09-05T06:37:14.837Z,6.42
2018-09-05T06:38:14.816Z,6.42
2018-09-05T06:39:14.830Z,6.32
2018-09-05T06:40:15.057Z,6.42
2018-09-05T06:41:15.046Z,6.52
2018-09-05T06:42:14.771Z,6.81
2018-09-05T06:43:15.030Z,6.71
2018-09-05T06:44:15.010Z,6.71
2018-09-05T06:45:15.110Z,6.81
2018-09-05T06:46:14.988Z,6.81
2018-09-05T06:47:14.985Z,7.1
2018-09-05T06:48:14.698Z,7.1
2018-09-05T06:49:15.159Z,7.19
2018-09-05T06:50:14.674Z,7.19
2018-09-05T06:51:14.686Z,7.57
2018-09-05T06:52:14.917Z,7.77
2018-09-05T06:53:14.639Z,7.96
2018-09-05T06:54:14.889Z,8.53
2018-09-05T06:55:14.618Z,8.34
2018-09-05T06:56:14.608Z,8.73
2018-09-05T06:57:14.591Z,8.73
2018-09-05T06:58:14.977Z,9.3
2018-09-05T06:59:14.858Z,9.31
2018-09-05T07:00:14.819Z,9.5
2018-09-05T07:01:15.010Z,10.08
2018-09-05T07:02:14.532Z,10.17
2018-09-05T07:03:14.787Z,9.88
2018-09-05T07:04:14.515Z,10.17
2018-09-05T07:05:14.766Z,10.27
2018-09-05T07:06:14.757Z,10.85
2018-09-05T07:07:14.476Z,10.75
2018-09-05T07:08:14.471Z,11.32
2018-09-05T07:09:14.453Z,11.71
2018-09-05T07:10:14.713Z,11.8
2018-09-05T07:11:14.433Z,11.99
2018-09-05T07:12:14.704Z,12.38
2018-09-05T07:13:14.677Z,12.77
2018-09-05T07:14:14.481Z,13.25
2018-09-05T07:15:14.385Z,13.35
2018-09-05T07:16:14.374Z,13.64
2018-09-05T07:17:14.631Z,13.54
2018-09-05T07:18:14.623Z,13.64
2018-09-05T07:19:14.605Z,13.92
2018-09-05T07:20:14.337Z,14.02
2018-09-05T07:21:14.722Z,14.02
2018-09-05T07:22:14.578Z,14.11
2018-09-05T07:23:14.300Z,14.11
2018-09-05T07:24:14.296Z,14.11
2018-09-05T07:25:14.536Z,14.5
2018-09-05T07:26:14.269Z,14.89
2018-09-05T07:27:14.517Z,16.24
2018-09-05T07:28:14.508Z,16.32
2018-09-05T07:29:14.234Z,16.81
2018-09-05T07:30:14.225Z,17.58
2018-09-05T07:31:14.475Z,18.26
2018-09-05T07:32:14.468Z,18.35
2018-09-05T07:33:14.192Z,19.6
2018-09-05T07:34:14.176Z,20.65
2018-09-05T07:35:14.430Z,20.27
2018-09-05T07:36:14.150Z,20.65
2018-09-05T07:37:14.404Z,20.56
2018-09-05T07:38:14.142Z,21.23
2018-09-05T07:39:14.391Z,21.15
2018-09-05T07:40:14.111Z,22.38
2018-09-05T07:41:14.363Z,22.97
2018-09-05T07:42:14.090Z,23.92
2018-09-05T07:43:14.342Z,23.74
2018-09-05T07:44:14.068Z,23.65
2018-09-05T07:45:14.065Z,23.26
2018-09-05T07:46:14.315Z,23.46
2018-09-05T07:47:14.038Z,23.74
2018-09-05T07:48:14.293Z,24.99
2018-09-05T07:49:14.284Z,26.05
2018-09-05T07:50:14.008Z,26.34
2018-09-05T07:51:13.996Z,26.43
2018-09-05T07:52:13.985Z,26.92
2018-09-05T07:53:14.293Z,27.69
2018-09-05T07:54:14.234Z,28.36
2018-09-05T07:55:14.221Z,28.93
2018-09-05T07:56:14.213Z,28.55
2018-09-05T07:57:13.939Z,28.56
2018-09-05T07:58:14.190Z,29.32
2018-09-05T07:59:14.181Z,29.33
2018-09-05T08:00:14.174Z,29.81
2018-09-05T08:01:14.155Z,30.1
2018-09-05T08:02:14.145Z,31.06
2018-09-05T08:03:14.135Z,30.29
2018-09-05T08:04:14.129Z,31.26
2018-09-05T08:05:14.121Z,31.54
2018-09-05T08:06:14.108Z,32.04
2018-09-05T08:07:14.098Z,31.65
2018-09-05T08:08:13.819Z,31.75
2018-09-05T08:09:14.077Z,36.47
2018-09-05T08:10:13.800Z,36.37
2018-09-05T08:11:13.796Z,35.5
2018-09-05T08:12:14.048Z,35.7
2018-09-05T08:13:13.977Z,37.62
2018-09-05T08:14:13.963Z,36.95
2018-09-05T08:15:14.017Z,38.59
2018-09-05T08:16:13.742Z,40.63
2018-09-05T08:17:13.999Z,42.55
2018-09-05T08:18:14.125Z,47.49
2018-09-05T08:19:13.976Z,48.54
2018-09-05T08:20:13.703Z,48.93
2018-09-05T08:21:13.958Z,49.41
2018-09-05T08:22:13.944Z,48.44
2018-09-05T08:23:13.949Z,50.27
2018-09-05T08:24:13.708Z,49.32
2018-09-05T08:25:13.653Z,50.47
2018-09-05T08:26:13.909Z,51.17
2018-09-05T08:27:13.901Z,51.26
2018-09-05T08:28:13.891Z,55.12
2018-09-05T08:29:14.000Z,54.44
2018-09-05T08:30:14.020Z,56.37
2018-09-05T08:31:13.859Z,55.79
2018-09-05T08:32:13.854Z,55.79
2018-09-05T08:33:13.851Z,54.74
2018-09-05T08:34:13.837Z,56.85
2018-09-05T08:35:14.266Z,56.66
2018-09-05T08:36:14.625Z,57.27
2018-09-05T08:37:14.464Z,56.98
2018-09-05T08:38:13.932Z,57.94
2018-09-05T08:39:13.818Z,59.3
2018-09-05T08:40:13.783Z,58.42
2018-09-05T08:41:13.573Z,59.87
2018-09-05T08:42:13.873Z,63.44
2018-09-05T08:43:13.752Z,66.52
2018-09-05T08:44:14.228Z,64.89
2018-09-05T08:45:13.735Z,64.79
2018-09-05T08:46:13.566Z,68.93
2018-09-05T08:47:13.493Z,68.26
2018-09-05T08:48:13.620Z,66.04
2018-09-05T08:49:13.433Z,67
2018-09-05T08:50:13.693Z,66.91
2018-09-05T08:51:13.685Z,67.4
2018-09-05T08:52:13.672Z,67.68
2018-09-05T08:53:13.684Z,68.35
2018-09-05T08:54:13.651Z,66.82
2018-09-05T08:55:13.851Z,66.43
2018-09-05T08:56:13.929Z,68.26
2018-09-05T08:57:13.360Z,69.13
2018-09-05T08:58:13.817Z,72.83
2018-09-05T08:59:13.609Z,71.96
2018-09-05T09:00:13.601Z,73.31
2018-09-05T09:01:13.590Z,72.92
2018-09-05T09:02:13.580Z,73.41
2018-09-05T09:03:13.577Z,72.63
2018-09-05T09:04:13.571Z,72.06
2018-09-05T09:05:13.298Z,75.05
2018-09-05T09:06:13.559Z,73.11
2018-09-05T09:07:13.536Z,73.6
2018-09-05T09:08:13.266Z,75.53
2018-09-05T09:09:13.522Z,75.53
2018-09-05T09:10:13.516Z,81.35
2018-09-05T09:11:13.508Z,82.81
2018-09-05T09:12:13.235Z,83
2018-09-05T09:13:13.490Z,86.96
2018-09-05T09:14:13.216Z,87.34
2018-09-05T09:15:13.209Z,87.92
2018-09-05T09:16:13.198Z,86.66
2018-09-05T09:17:13.454Z,90.28
2018-09-05T09:18:13.451Z,87.73
2018-09-05T09:19:13.175Z,88.02
2018-09-05T09:20:13.435Z,88.21
2018-09-05T09:21:13.424Z,89.99
2018-09-05T09:22:13.416Z,95.78
2018-09-05T09:23:13.141Z,99.99
2018-09-05T09:24:13.403Z,96.56
2018-09-05T09:25:13.389Z,99.84
2018-09-05T09:26:13.389Z,99.99
2018-09-05T09:27:13.376Z,99.45
2018-09-05T09:28:13.163Z,99.99
2018-09-05T09:29:13.357Z,99.99
2018-09-05T09:30:13.090Z,99.99
2018-09-05T09:31:13.085Z,99.99
2018-09-05T09:32:13.338Z,99.99
2018-09-05T09:33:13.331Z,99.99
2018-09-05T09:34:13.330Z,99.99
2018-09-05T09:35:13.371Z,99.99
2018-09-05T09:36:13.306Z,99.99
2018-09-05T09:37:13.032Z,99.99
2018-09-05T09:38:13.032Z,99.99
2018-09-05T09:39:13.016Z,99.99
2018-09-05T09:40:13.011Z,99.99
2018-09-05T09:41:13.273Z,99.99
2018-09-05T09:42:13.002Z,99.99
2018-09-05T09:43:12.990Z,99.99
2018-09-05T09:44:13.246Z,99.99
2018-09-05T09:45:13.231Z,99.99
2018-09-05T09:46:13.241Z,99.99
2018-09-05T09:47:13.221Z,99.99
2018-09-05T09:48:12.946Z,99.99
2018-09-05T09:49:12.939Z,99.99
2018-09-05T09:50:12.932Z,99.99
2018-09-05T09:51:13.190Z,99.99
2018-09-05T09:52:13.180Z,99.99
2018-09-05T09:53:12.910Z,99.99
2018-09-05T09:54:13.166Z,99.99
2018-09-05T09:55:12.945Z,99.99
2018-09-05T09:56:13.161Z,99.99
2018-09-05T09:57:13.146Z,99.99
2018-09-05T09:58:13.136Z,99.99
2018-09-05T09:59:12.868Z,99.99
2018-09-05T10:00:13.121Z,99.99
2018-09-05T10:01:13.115Z,99.99
2018-09-05T10:02:13.108Z,99.99
2018-09-05T10:03:13.158Z,99.99
2018-09-05T10:04:13.274Z,99.99
2018-09-05T10:05:13.084Z,99.99
2018-09-05T10:06:12.815Z,99.99
2018-09-05T10:07:13.198Z,99.99
2018-09-05T10:08:13.067Z,99.99
2018-09-05T10:09:13.055Z,99.99
2018-09-05T10:10:13.592Z,99.99
2018-09-05T10:11:13.049Z,99.99
2018-09-05T10:12:13.038Z,99.99
2018-09-05T10:13:13.036Z,99.99
2018-09-05T10:14:12.758Z,99.99
2018-09-05T10:15:13.018Z,99.99
2018-09-05T10:16:13.015Z,99.99
2018-09-05T10:17:12.760Z,99.99
2018-09-05T10:18:12.998Z,99.99
2018-09-05T10:19:12.726Z,99.99
2018-09-05T10:20:13.032Z,99.99
2018-09-05T10:21:12.709Z,99.99
2018-09-05T10:22:12.705Z,99.99
2018-09-05T10:23:12.962Z,99.99
2018-09-05T10:24:12.956Z,99.99
2018-09-05T10:25:14.453Z,99.99
2018-09-05T10:26:12.951Z,99.99
2018-09-05T10:27:12.715Z,99.99
2018-09-05T10:28:12.927Z,99.99
2018-09-05T10:29:12.656Z,99.99
2018-09-05T10:30:12.651Z,99.99
2018-09-05T10:31:12.907Z,99.99
2018-09-05T10:32:12.909Z,99.99
2018-09-05T10:33:12.632Z,99.99
2018-09-05T10:34:12.630Z,99.99
2018-09-05T10:35:12.884Z,99.99
2018-09-05T10:36:12.879Z,99.99
2018-09-05T10:37:12.608Z,99.99
2018-09-05T10:38:12.862Z,99.99
2018-09-05T10:39:12.856Z,99.99
2018-09-05T10:40:12.850Z,99.99
2018-09-05T10:41:12.583Z,99.99
2018-09-05T10:42:12.834Z,99.99
2018-09-05T10:43:12.565Z,99.99
2018-09-05T10:44:12.941Z,99.99
2018-09-05T10:45:12.826Z,99.99
2018-09-05T10:46:12.812Z,99.99
2018-09-05T10:47:12.806Z,99.99
2018-09-05T10:48:12.588Z,99.99
2018-09-05T10:49:12.798Z,99.99
2018-09-05T10:50:12.786Z,99.99
2018-09-05T10:51:12.786Z,99.99
2018-09-05T10:52:12.783Z,99.99
2018-09-05T10:53:12.777Z,99.99
2018-09-05T10:54:12.767Z,99.99
2018-09-05T10:55:12.761Z,99.99
2018-09-05T10:56:12.495Z,99.99
2018-09-05T10:57:12.753Z,99.99
2018-09-05T10:58:13.002Z,99.99
2018-09-05T10:59:12.474Z,99.99
2018-09-05T11:00:12.736Z,99.99
2018-09-05T11:01:12.459Z,99.99
2018-09-05T11:02:12.727Z,99.99
2018-09-05T11:03:12.451Z,99.99
2018-09-05T11:04:12.741Z,99.99
2018-09-05T11:05:12.446Z,99.99
2018-09-05T11:06:12.442Z,99.99
2018-09-05T11:07:12.695Z,99.99
2018-09-05T11:08:12.691Z,99.99
2018-09-05T11:09:12.425Z,99.99
2018-09-05T11:10:12.680Z,99.99
2018-09-05T11:11:12.676Z,99.99
2018-09-05T11:12:12.403Z,99.99
2018-09-05T11:13:12.715Z,95.43
2018-09-05T11:14:12.668Z,95.24
2018-09-05T11:15:12.389Z,96.11
2018-09-05T11:16:12.653Z,95.33
2018-09-05T11:17:12.645Z,96.98
2018-09-05T11:18:12.637Z,93.73
2018-09-05T11:19:12.636Z,91.4
2018-09-05T11:20:12.634Z,92.95
2018-09-05T11:21:12.447Z,91.83
2018-09-05T11:22:12.627Z,90.71
2018-09-05T11:23:12.623Z,86.92
2018-09-05T11:24:12.621Z,86.57
2018-09-05T11:25:12.624Z,81.36
2018-09-05T11:26:12.623Z,80.33
2018-09-05T11:27:12.621Z,75.4
2018-09-05T11:28:12.359Z,78.13
2018-09-05T11:29:12.765Z,75.27
2018-09-05T11:30:12.629Z,74.4
2018-09-05T11:31:12.366Z,74.3
2018-09-05T11:32:12.634Z,70.53
2018-09-05T11:33:12.364Z,71.35
2018-09-05T11:34:12.368Z,71.97
2018-09-05T11:35:12.642Z,68.49
2018-09-05T11:36:12.371Z,69.21
2018-09-05T11:37:12.646Z,67.38
2018-09-05T11:38:12.645Z,63.99
2018-09-05T11:39:12.654Z,63.04
2018-09-05T11:40:12.398Z,61.77
2018-09-05T11:41:12.666Z,61.21
2018-09-05T11:42:12.397Z,60.85
2018-09-05T11:43:12.665Z,62.02
2018-09-05T11:44:12.406Z,63.59
2018-09-05T11:45:12.414Z,63.53
2018-09-05T11:46:12.417Z,62.28
2018-09-05T11:47:12.685Z,60.35
2018-09-05T11:48:12.434Z,60.68
2018-09-05T11:49:12.695Z,59.23
2018-09-05T11:50:12.707Z,60.41
2018-09-05T11:51:12.715Z,57.86
2018-09-05T11:52:12.457Z,59.79
2018-09-05T11:53:12.457Z,59.39
2018-09-05T11:54:12.726Z,59.66
2018-09-05T11:55:12.781Z,58.19
2018-09-05T11:56:12.740Z,57.9
2018-09-05T11:57:12.825Z,58
2018-09-05T11:58:12.756Z,59.24
2018-09-05T11:59:12.768Z,59.66
2018-09-05T12:00:12.508Z,57.92
2018-09-05T12:01:12.786Z,58.05
2018-09-05T12:02:12.878Z,59.23
2018-09-05T12:03:12.525Z,59.36
2018-09-05T12:04:12.795Z,55.94
2018-09-05T12:05:12.544Z,57.45
2018-09-05T12:06:12.806Z,58.23
2018-09-05T12:07:12.821Z,55.8
2018-09-05T12:08:12.565Z,53.76
2018-09-05T12:09:12.838Z,54.25
2018-09-05T12:10:12.840Z,52.78
2018-09-05T12:11:12.846Z,51.69
2018-09-05T12:12:12.693Z,54.25
2018-09-05T12:13:12.862Z,52.87
2018-09-05T12:14:12.608Z,52.21
2018-09-05T12:15:12.877Z,51.32
2018-09-05T12:16:12.621Z,52.87
2018-09-05T12:17:12.903Z,54.05
2018-09-05T12:18:12.640Z,52.68
2018-09-05T12:19:12.651Z,52.4
2018-09-05T12:20:12.658Z,52.4
2018-09-05T12:21:12.927Z,52.9
2018-09-05T12:22:12.677Z,52.04
2018-09-05T12:23:12.949Z,51.15
2018-09-05T12:24:12.952Z,50.49
2018-09-05T12:25:13.164Z,47.63
2018-09-05T12:26:12.965Z,49.16
2018-09-05T12:27:12.765Z,48.07
2018-09-05T12:28:12.719Z,49.33
2018-09-05T12:29:12.993Z,48.83
2018-09-05T12:30:13.003Z,50.19
2018-09-05T12:31:13.008Z,51.64
2018-09-05T12:32:13.019Z,52.65
2018-09-05T12:33:13.028Z,50.51
2018-09-05T12:34:13.037Z,51.23
2018-09-05T12:35:12.788Z,50.76
2018-09-05T12:36:13.059Z,50.76
2018-09-05T12:37:13.063Z,50.26
2018-09-05T12:38:13.169Z,48.91
2018-09-05T12:39:12.814Z,48.14
2018-09-05T12:40:12.826Z,48.91
2018-09-05T12:41:13.100Z,47.92
2018-09-05T12:42:12.846Z,47.9
2018-09-05T12:43:12.851Z,47.33
2018-09-05T12:44:13.130Z,46.44
2018-09-05T12:45:12.869Z,47.63
2018-09-05T12:46:13.141Z,48.39
2018-09-05T12:47:13.154Z,47.8
2018-09-05T12:48:12.897Z,47.31
2018-09-05T12:49:13.167Z,48.19
2018-09-05T12:50:12.914Z,46.64
2018-09-05T12:51:13.186Z,46.94
2018-09-05T12:52:13.197Z,47.7
2018-09-05T12:53:12.940Z,48.64
2018-09-05T12:54:13.210Z,47.75
2018-09-05T12:55:13.219Z,47.73
2018-09-05T12:56:13.232Z,49.48
2018-09-05T12:57:13.236Z,49.21
2018-09-05T12:58:12.980Z,48.82